Terminal Aerodrome Forecast
Issued by NWS Springfield, MO

Home | Current Version | Previous Version | Text Only | Print | Product List | Glossary On
Versions: 1 2 3 4 5 6 7 8 9 10 11 12 13 14 15 16 17 18 19 20 21 22 23 24 25 26 27 28 29 30 31 32 33 34 35 36 37 38 39 40 41 42 43
998
FTUS43 KSGF 172248 AAB
TAFSGF
TAF AMD
KSGF 172248Z 1723/1818 30008KT P6SM OVC008
     FM180500 26004KT 4SM BR SCT007
     FM180900 VRB03KT 2SM BR BKN008
     FM181200 VRB03KT 1/2SM FG BKN003
     FM181500 VRB03KT 4SM BR BKN008
     FM181700 16005KT P6SM BKN050=

USA.gov is the U.S. government's official web portal to all federal, state and local government web resources and services.